createdAt,value
2018-08-10T00:00:08.159Z,69.87
2018-08-10T00:01:10.994Z,68.44
2018-08-10T00:02:14.253Z,69.08
2018-08-10T00:03:18.037Z,70.39
2018-08-10T00:04:20.824Z,70.11
2018-08-10T00:05:23.730Z,70.95
2018-08-10T00:06:26.774Z,70.15
2018-08-10T00:07:29.936Z,69.78
2018-08-10T00:08:32.841Z,69.15
2018-08-10T00:09:36.736Z,70.60
2018-08-10T00:10:40.800Z,70.14
2018-08-10T00:11:44.653Z,69.70
2018-08-10T00:12:47.924Z,71.06
2018-08-10T00:13:51.907Z,69.96
2018-08-10T00:14:55.068Z,70.95
2018-08-10T00:15:57.919Z,68.83
2018-08-10T00:17:00.866Z,68.13
2018-08-10T00:18:03.857Z,69.57
2018-08-10T00:19:06.897Z,70.68
2018-08-10T00:20:10.948Z,70.61
2018-08-10T00:21:17.067Z,70.05
2018-08-10T00:22:20.074Z,68.92
2018-08-10T00:23:23.012Z,69.65
2018-08-10T00:24:26.231Z,69.51
2018-08-10T00:25:30.120Z,69.78
2018-08-10T00:26:35.052Z,69.45
2018-08-10T00:27:38.687Z,70.73
2018-08-10T00:28:43.251Z,69.00
2018-08-10T00:29:47.469Z,68.55
2018-08-10T00:30:50.614Z,69.85
2018-08-10T00:31:53.751Z,69.41
2018-08-10T00:32:57.660Z,69.17
2018-08-10T00:34:01.946Z,68.99
2018-08-10T00:35:04.808Z,69.03
2018-08-10T00:36:08.517Z,69.92
2018-08-10T00:37:11.349Z,69.47
2018-08-10T00:38:14.168Z,69.85
2018-08-10T00:39:17.299Z,70.86
2018-08-10T00:40:21.722Z,70.27
2018-08-10T00:41:25.534Z,70.22
2018-08-10T00:42:28.677Z,71.08
2018-08-10T00:43:32.147Z,70.86
2018-08-10T00:44:34.957Z,70.00
2018-08-10T00:45:38.076Z,69.86
2018-08-10T00:46:40.988Z,70.09
2018-08-10T00:47:44.112Z,70.05
2018-08-10T00:48:47.437Z,70.73
2018-08-10T00:49:50.256Z,71.05
2018-08-10T00:50:53.076Z,70.49
2018-08-10T00:51:56.238Z,70.72
2018-08-10T00:52:59.067Z,70.53
2018-08-10T00:54:01.877Z,70.87
2018-08-10T00:55:04.712Z,71.37
2018-08-10T00:56:07.589Z,70.54
2018-08-10T00:57:10.374Z,70.53
2018-08-10T00:58:13.459Z,70.85
2018-08-10T00:59:16.281Z,69.93
2018-08-10T01:00:19.150Z,69.68
2018-08-10T01:01:21.968Z,69.14
2018-08-10T01:02:24.760Z,69.96
2018-08-10T01:03:27.590Z,69.78
2018-08-10T01:04:30.744Z,69.92
2018-08-10T01:05:33.547Z,70.49
2018-08-10T01:06:36.439Z,69.74
2018-08-10T01:07:39.346Z,69.70
2018-08-10T01:08:42.892Z,69.99
2018-08-10T01:09:45.702Z,70.19
2018-08-10T01:10:48.772Z,70.29
2018-08-10T01:11:51.611Z,70.16
2018-08-10T01:12:54.422Z,70.64
2018-08-10T01:13:57.245Z,70.57
2018-08-10T01:15:00.066Z,70.02
2018-08-10T01:16:02.883Z,69.45
2018-08-10T01:17:06.617Z,70.02
2018-08-10T01:18:09.445Z,69.06
2018-08-10T01:19:12.285Z,69.74
2018-08-10T01:20:15.901Z,70.70
2018-08-10T01:21:18.731Z,71.34
2018-08-10T01:22:21.546Z,72.00
2018-08-10T01:23:24.710Z,71.28
2018-08-10T01:24:27.528Z,71.52
2018-08-10T01:25:30.367Z,73.02
2018-08-10T01:26:33.202Z,73.12
2018-08-10T01:27:41.717Z,72.16
2018-08-10T01:28:44.576Z,73.32
2018-08-10T01:29:48.762Z,73.35
2018-08-10T01:30:51.645Z,73.27
2018-08-10T01:31:54.509Z,73.33
2018-08-10T01:32:57.921Z,74.03
2018-08-10T01:34:00.825Z,74.26
2018-08-10T01:35:03.672Z,73.47
2018-08-10T01:36:07.187Z,72.31
2018-08-10T01:37:10.009Z,74.10
2018-08-10T01:38:12.837Z,72.70
2018-08-10T01:39:21.196Z,72.28
2018-08-10T01:40:25.519Z,73.09
2018-08-10T01:41:28.457Z,72.16
2018-08-10T01:42:31.425Z,72.39
2018-08-10T01:43:34.328Z,72.94
2018-08-10T01:44:37.171Z,72.12
2018-08-10T01:45:40.053Z,72.17
2018-08-10T01:46:42.903Z,72.84
2018-08-10T01:47:45.815Z,72.81
2018-08-10T01:48:48.896Z,72.37
2018-08-10T01:49:51.744Z,72.89
2018-08-10T01:50:54.566Z,72.80
2018-08-10T01:51:57.385Z,72.83
2018-08-10T01:53:00.222Z,73.08
2018-08-10T01:54:03.080Z,74.12
2018-08-10T01:55:06.195Z,73.28
2018-08-10T01:56:09.008Z,72.17
2018-08-10T01:57:11.821Z,72.41
2018-08-10T01:58:14.639Z,72.33
2018-08-10T01:59:17.486Z,73.25
2018-08-10T02:00:20.355Z,71.83
2018-08-10T02:01:23.455Z,71.90
2018-08-10T02:02:26.311Z,72.24
2018-08-10T02:03:29.154Z,71.86
2018-08-10T02:04:32.027Z,71.24
2018-08-10T02:05:34.894Z,72.34
2018-08-10T02:06:37.749Z,71.68
2018-08-10T02:07:42.337Z,72.39
2018-08-10T02:08:45.190Z,70.76
2018-08-10T02:09:48.031Z,70.57
2018-08-10T02:10:51.645Z,70.22
2018-08-10T02:11:55.803Z,71.07
2018-08-10T02:12:59.340Z,70.64
2018-08-10T02:14:03.414Z,69.24
2018-08-10T02:15:06.336Z,69.38
2018-08-10T02:16:10.143Z,69.65
2018-08-10T02:17:12.971Z,69.31
2018-08-10T02:18:15.765Z,67.57
2018-08-10T02:19:18.612Z,65.46
2018-08-10T02:20:23.281Z,66.23
2018-08-10T02:21:26.116Z,67.57
2018-08-10T02:22:28.925Z,67.99
2018-08-10T02:23:31.771Z,66.89
2018-08-10T02:24:34.580Z,66.60
2018-08-10T02:25:37.412Z,67.20
2018-08-10T02:26:40.518Z,66.94
2018-08-10T02:27:45.065Z,67.70
2018-08-10T02:28:48.468Z,67.67
2018-08-10T02:29:52.100Z,67.65
2018-08-10T02:30:54.938Z,67.61
2018-08-10T02:31:57.809Z,68.58
2018-08-10T02:33:01.199Z,68.54
2018-08-10T02:34:04.013Z,68.11
2018-08-10T02:35:07.128Z,69.17
2018-08-10T02:36:09.971Z,68.87
2018-08-10T02:37:12.792Z,70.43
2018-08-10T02:38:15.646Z,71.59
2018-08-10T02:39:18.792Z,72.50
2018-08-10T02:40:22.899Z,71.50
2018-08-10T02:41:25.708Z,72.00
2018-08-10T02:42:28.545Z,71.89
2018-08-10T02:43:31.361Z,71.35
2018-08-10T02:44:34.192Z,71.05
2018-08-10T02:45:37.408Z,72.19
2018-08-10T02:46:40.242Z,72.53
2018-08-10T02:47:43.085Z,71.86
2018-08-10T02:48:45.937Z,71.58
2018-08-10T02:49:48.832Z,71.13
2018-08-10T02:50:51.677Z,71.62
2018-08-10T02:51:54.791Z,71.25
2018-08-10T02:52:57.606Z,72.19
2018-08-10T02:54:00.483Z,71.33
2018-08-10T02:55:03.322Z,71.64
2018-08-10T02:56:06.139Z,70.37
2018-08-10T02:57:09.042Z,72.15
2018-08-10T02:58:12.175Z,71.70
2018-08-10T02:59:15.060Z,71.76
2018-08-10T03:00:18.504Z,72.19
2018-08-10T03:01:21.383Z,71.07
2018-08-10T03:02:24.203Z,70.44
2018-08-10T03:03:27.056Z,70.69
2018-08-10T03:04:30.177Z,72.41
2018-08-10T03:05:33.024Z,72.33
2018-08-10T03:06:35.889Z,71.97
2018-08-10T03:07:39.234Z,72.70
2018-08-10T03:08:42.159Z,70.85
2018-08-10T03:09:45.369Z,71.66
2018-08-10T03:10:48.429Z,72.18
2018-08-10T03:11:51.286Z,72.87
2018-08-10T03:12:54.153Z,71.60
2018-08-10T03:13:57.012Z,72.55
2018-08-10T03:14:59.840Z,73.35
2018-08-10T03:16:02.932Z,72.95
2018-08-10T03:17:05.784Z,72.32
2018-08-10T03:18:08.602Z,71.66
2018-08-10T03:19:11.433Z,71.86
2018-08-10T03:20:14.400Z,71.67
2018-08-10T03:21:17.253Z,70.91
2018-08-10T03:22:20.384Z,72.46
2018-08-10T03:23:23.196Z,72.28
2018-08-10T03:24:26.023Z,71.97
2018-08-10T03:25:28.843Z,72.72
2018-08-10T03:26:31.680Z,73.86
2018-08-10T03:27:34.508Z,73.42
2018-08-10T03:28:37.614Z,73.44
2018-08-10T03:29:40.460Z,73.32
2018-08-10T03:30:43.272Z,74.17
2018-08-10T03:31:46.093Z,74.29
2018-08-10T03:32:48.940Z,74.17
2018-08-10T03:33:51.767Z,73.25
2018-08-10T03:34:54.932Z,73.18
2018-08-10T03:35:57.783Z,72.99
2018-08-10T03:37:00.696Z,74.02
2018-08-10T03:38:03.538Z,74.12
2018-08-10T03:39:06.372Z,73.86
2018-08-10T03:40:09.193Z,73.99
2018-08-10T03:41:12.333Z,73.18
2018-08-10T03:42:15.143Z,72.93
2018-08-10T03:43:17.970Z,73.45
2018-08-10T03:44:20.833Z,73.44
2018-08-10T03:45:23.649Z,74.26
2018-08-10T03:46:26.750Z,74.06
2018-08-10T03:47:29.958Z,74.70
2018-08-10T03:48:32.905Z,74.32
2018-08-10T03:49:35.785Z,74.22
2018-08-10T03:50:38.634Z,74.78
2018-08-10T03:51:41.465Z,75.40
2018-08-10T03:52:44.846Z,75.03
2018-08-10T03:53:47.971Z,73.08
2018-08-10T03:54:50.771Z,73.85
2018-08-10T03:55:53.635Z,74.61
2018-08-10T03:56:56.486Z,73.93
2018-08-10T03:57:59.341Z,74.44
2018-08-10T03:59:02.147Z,73.48
2018-08-10T04:00:05.234Z,73.01
2018-08-10T04:01:09.617Z,73.85
2018-08-10T04:02:12.470Z,74.48
2018-08-10T04:03:15.317Z,73.43
2018-08-10T04:04:18.140Z,73.85
2018-08-10T04:05:21.006Z,73.84
2018-08-10T04:06:24.150Z,73.18
2018-08-10T04:07:26.983Z,73.06
2018-08-10T04:08:29.824Z,74.45
2018-08-10T04:09:32.633Z,73.88
2018-08-10T04:10:35.973Z,73.92
2018-08-10T04:11:38.857Z,73.06
2018-08-10T04:12:42.165Z,72.79
2018-08-10T04:13:46.007Z,73.62
2018-08-10T04:14:48.825Z,73.17
2018-08-10T04:15:51.692Z,74.18
2018-08-10T04:16:54.556Z,74.24
2018-08-10T04:18:00.637Z,75.32
2018-08-10T04:19:03.974Z,76.28
2018-08-10T04:20:06.802Z,75.67
2018-08-10T04:21:10.257Z,75.11
2018-08-10T04:22:13.077Z,74.84
2018-08-10T04:23:15.891Z,75.35
2018-08-10T04:24:18.705Z,76.20
2018-08-10T04:25:21.836Z,76.57
2018-08-10T04:27:26.800Z,75.48
2018-08-10T04:28:29.840Z,74.95
2018-08-10T04:29:32.651Z,73.79
2018-08-10T04:30:35.535Z,73.75
2018-08-10T04:31:38.707Z,73.69
2018-08-10T04:32:41.597Z,75.72
2018-08-10T04:33:44.445Z,74.61
2018-08-10T04:34:47.283Z,75.66
2018-08-10T04:35:50.141Z,74.71
2018-08-10T04:36:52.962Z,74.64
2018-08-10T04:37:56.205Z,73.88
2018-08-10T04:38:59.041Z,73.35
2018-08-10T04:40:01.875Z,75.13
2018-08-10T04:41:04.708Z,73.84
2018-08-10T04:42:07.566Z,74.26
2018-08-10T04:43:10.405Z,74.83
2018-08-10T04:44:13.611Z,74.24
2018-08-10T04:45:20.273Z,74.34
2018-08-10T04:46:23.637Z,73.36
2018-08-10T04:47:26.443Z,74.45
2018-08-10T04:48:29.255Z,75.55
2018-08-10T04:49:33.026Z,75.81
2018-08-10T04:50:36.285Z,74.82
2018-08-10T04:51:39.143Z,73.89
2018-08-10T04:52:42.056Z,75.03
2018-08-10T04:53:46.592Z,75.49
2018-08-10T04:54:49.427Z,75.51
2018-08-10T04:55:52.483Z,74.51
2018-08-10T04:56:55.585Z,74.32
2018-08-10T04:57:58.468Z,75.34
2018-08-10T04:59:01.336Z,75.80
2018-08-10T05:00:04.819Z,76.01
2018-08-10T05:01:08.458Z,75.20
2018-08-10T05:02:11.273Z,76.35
2018-08-10T05:03:14.409Z,76.08
2018-08-10T05:04:17.267Z,76.00
2018-08-10T05:05:20.105Z,76.72
2018-08-10T05:06:23.718Z,76.18
2018-08-10T05:07:26.570Z,75.96
2018-08-10T05:08:29.655Z,75.87
2018-08-10T05:09:32.765Z,76.21
2018-08-10T05:10:35.640Z,74.79
2018-08-10T05:11:38.741Z,76.12
2018-08-10T05:12:41.960Z,75.69
2018-08-10T05:13:44.757Z,75.94
2018-08-10T05:14:47.776Z,76.45
2018-08-10T05:15:51.107Z,76.04
2018-08-10T05:16:54.470Z,74.65
2018-08-10T05:17:57.301Z,75.67
2018-08-10T05:19:00.648Z,75.92
2018-08-10T05:20:03.518Z,76.01
2018-08-10T05:21:06.318Z,76.50
2018-08-10T05:22:09.462Z,75.51
2018-08-10T05:23:12.282Z,76.35
2018-08-10T05:24:17.308Z,76.97
2018-08-10T05:25:21.357Z,76.28
2018-08-10T05:26:26.726Z,76.93
2018-08-10T05:27:29.717Z,76.83
2018-08-10T05:28:33.785Z,76.63
2018-08-10T05:29:36.716Z,76.37
2018-08-10T05:33:20.184Z,76.89
2018-08-10T05:34:23.788Z,75.66
2018-08-10T05:35:26.908Z,75.79
2018-08-10T05:36:29.769Z,75.73
2018-08-10T05:37:33.236Z,76.13
2018-08-10T05:38:42.377Z,75.34
2018-08-10T05:39:45.407Z,75.36
2018-08-10T05:40:48.824Z,75.55
2018-08-10T05:41:53.128Z,74.68
2018-08-10T05:42:57.863Z,74.75
2018-08-10T05:44:01.270Z,75.10
2018-08-10T05:45:05.269Z,74.95
2018-08-10T05:46:09.101Z,74.68
2018-08-10T05:47:12.107Z,74.10
2018-08-10T05:48:15.347Z,75.03
2018-08-10T05:49:18.271Z,74.04
2018-08-10T05:50:21.097Z,74.38
2018-08-10T05:51:25.500Z,74.36
2018-08-10T05:52:28.378Z,74.77
2018-08-10T05:53:31.254Z,74.20
2018-08-10T05:54:34.643Z,74.46
2018-08-10T05:55:37.449Z,73.49
2018-08-10T05:56:40.328Z,74.12
2018-08-10T05:57:43.159Z,74.40
2018-08-10T05:58:45.990Z,74.11
2018-08-10T05:59:49.857Z,73.69
2018-08-10T06:00:53.121Z,73.58
2018-08-10T06:01:55.965Z,73.67
2018-08-10T06:02:58.840Z,73.73
2018-08-10T06:04:01.812Z,73.51
2018-08-10T06:05:04.550Z,73.98
2018-08-10T06:06:07.366Z,73.53
2018-08-10T06:07:10.558Z,73.20
2018-08-10T06:08:13.636Z,73.27
2018-08-10T06:09:16.783Z,72.96
2018-08-10T06:10:19.943Z,72.80
2018-08-10T06:11:22.772Z,73.45
2018-08-10T06:12:26.509Z,73.63
2018-08-10T06:13:30.452Z,73.43
2018-08-10T06:14:33.254Z,73.08
2018-08-10T06:15:36.176Z,72.32
2018-08-10T06:16:39.026Z,72.85
2018-08-10T06:17:42.137Z,72.76
2018-08-10T06:18:44.977Z,72.37
2018-08-10T06:19:47.864Z,72.91
2018-08-10T06:20:50.789Z,72.12
2018-08-10T06:21:53.618Z,72.25
2018-08-10T06:22:56.498Z,72.31
2018-08-10T06:23:59.378Z,72.12
2018-08-10T06:25:02.317Z,71.39
2018-08-10T06:26:05.524Z,71.27
2018-08-10T06:27:08.378Z,71.28
2018-08-10T06:28:12.441Z,70.73
2018-08-10T06:29:15.809Z,70.26
2018-08-10T06:30:18.962Z,70.63
2018-08-10T06:31:21.789Z,69.95
2018-08-10T06:32:24.918Z,70.01
2018-08-10T06:33:27.799Z,69.35
2018-08-10T06:34:32.172Z,69.73
2018-08-10T06:35:34.993Z,69.51
2018-08-10T06:36:38.566Z,70.24
2018-08-10T06:37:41.415Z,69.91
2018-08-10T06:38:44.735Z,69.84
2018-08-10T06:39:47.804Z,69.57
2018-08-10T06:40:51.297Z,69.67
2018-08-10T06:41:54.167Z,69.89
2018-08-10T06:42:57.122Z,69.73
2018-08-10T06:44:00.032Z,69.35
2018-08-10T06:45:06.656Z,69.76
2018-08-10T06:46:09.410Z,68.77
2018-08-10T06:47:12.250Z,69.33
2018-08-10T06:48:15.738Z,69.45
2018-08-10T06:49:19.538Z,68.54
2018-08-10T06:50:22.693Z,69.09
2018-08-10T06:51:25.511Z,67.74
2018-08-10T06:52:28.325Z,68.81
2018-08-10T06:53:31.151Z,67.70
2018-08-10T06:54:33.968Z,68.63
2018-08-10T06:55:36.842Z,67.87
2018-08-10T06:56:40.130Z,69.72
2018-08-10T06:57:43.024Z,68.67
2018-08-10T06:58:45.942Z,68.42
2018-08-10T06:59:48.832Z,68.89
2018-08-10T07:00:51.684Z,68.38
2018-08-10T07:01:54.596Z,67.85
2018-08-10T07:02:57.752Z,66.62
2018-08-10T07:04:03.297Z,66.85
2018-08-10T07:05:06.819Z,64.93
2018-08-10T07:06:09.644Z,67.39
2018-08-10T07:07:13.389Z,67.93
2018-08-10T07:08:16.533Z,66.68
2018-08-10T07:09:19.393Z,66.41
2018-08-10T07:10:22.234Z,66.63
2018-08-10T07:11:25.072Z,65.48
2018-08-10T07:12:29.573Z,65.00
2018-08-10T07:13:32.532Z,64.90
2018-08-10T07:14:35.615Z,65.51
2018-08-10T07:15:38.482Z,66.30
2018-08-10T07:16:41.405Z,66.29
2018-08-10T07:17:44.272Z,66.37
2018-08-10T07:18:47.724Z,66.26
2018-08-10T07:19:50.547Z,66.95
2018-08-10T07:20:53.642Z,66.51
2018-08-10T07:21:56.493Z,66.71
2018-08-10T07:22:59.405Z,66.80
2018-08-10T07:24:02.970Z,67.76
2018-08-10T07:25:05.822Z,66.28
2018-08-10T07:27:11.734Z,66.58
2018-08-10T07:28:15.451Z,65.24
2018-08-10T07:29:18.317Z,65.63
2018-08-10T07:30:21.187Z,64.98
2018-08-10T07:31:24.026Z,63.69
2018-08-10T07:32:28.617Z,63.59
2018-08-10T07:33:31.702Z,62.29
2018-08-10T07:34:35.711Z,61.21
2018-08-10T07:35:39.004Z,61.20
2018-08-10T07:36:41.849Z,60.34
2018-08-10T07:37:45.951Z,61.77
2018-08-10T07:38:50.933Z,60.70
2018-08-10T07:39:54.575Z,60.61
2018-08-10T07:40:57.409Z,60.68
2018-08-10T07:42:00.255Z,59.29
2018-08-10T07:43:03.061Z,59.78
2018-08-10T07:44:06.010Z,60.65
2018-08-10T07:45:10.150Z,62.15
2018-08-10T07:46:14.183Z,62.75
2018-08-10T07:47:18.838Z,62.27
2018-08-10T07:48:22.280Z,63.40
2018-08-10T07:49:25.100Z,63.07
2018-08-10T07:50:27.967Z,61.72
2018-08-10T07:51:31.076Z,60.91
2018-08-10T07:52:33.951Z,61.78
2018-08-10T07:53:36.852Z,61.28
2018-08-10T07:54:39.693Z,61.17
2018-08-10T07:55:42.566Z,61.84
2018-08-10T07:56:45.484Z,61.41
2018-08-10T07:57:49.582Z,61.81
2018-08-10T07:58:52.438Z,61.54
2018-08-10T07:59:55.305Z,61.14
2018-08-10T08:00:58.766Z,60.31
2018-08-10T08:02:01.631Z,60.03
2018-08-10T08:03:04.485Z,58.37
2018-08-10T08:04:07.893Z,57.79
2018-08-10T08:05:10.696Z,58.91
2018-08-10T08:06:14.531Z,57.39
2018-08-10T08:07:18.279Z,57.35
2018-08-10T08:08:21.934Z,57.39
2018-08-10T08:09:26.093Z,56.40
2018-08-10T08:10:29.346Z,56.57
2018-08-10T08:11:33.630Z,55.25
2018-08-10T08:12:36.763Z,56.66
2018-08-10T08:13:39.653Z,57.72
2018-08-10T08:14:42.563Z,56.76
2018-08-10T08:15:45.696Z,57.52
2018-08-10T08:16:49.106Z,58.71
2018-08-10T08:17:52.133Z,60.27
2018-08-10T08:19:59.156Z,58.17
2018-08-10T08:21:02.015Z,59.64
2018-08-10T08:22:05.483Z,59.77
2018-08-10T08:23:08.628Z,60.19
2018-08-10T08:24:11.456Z,59.21
2018-08-10T08:25:14.529Z,59.68
2018-08-10T08:26:17.380Z,60.47
2018-08-10T08:27:20.758Z,58.63
2018-08-10T08:28:27.611Z,58.08
2018-08-10T08:29:32.517Z,57.04
2018-08-10T08:30:37.804Z,59.50
2018-08-10T08:31:40.713Z,59.32
2018-08-10T08:32:47.042Z,58.99
2018-08-10T08:33:50.439Z,58.93
2018-08-10T08:34:53.301Z,58.97
2018-08-10T08:35:57.628Z,59.57
2018-08-10T08:37:00.891Z,58.44
2018-08-10T08:38:03.776Z,57.59
2018-08-10T08:39:07.858Z,58.61
2018-08-10T08:40:10.960Z,57.13
2018-08-10T08:41:15.179Z,56.58
2018-08-10T08:42:18.319Z,55.62
2018-08-10T08:43:21.123Z,53.43
2018-08-10T08:44:24.507Z,53.91
2018-08-10T08:45:27.416Z,52.71
2018-08-10T08:46:30.388Z,55.83
2018-08-10T08:47:34.466Z,54.21
2018-08-10T08:48:39.797Z,54.37
2018-08-10T08:49:42.615Z,53.33
2018-08-10T08:50:47.721Z,54.91
2018-08-10T08:51:51.048Z,53.19
2018-08-10T08:52:54.771Z,52.53
2018-08-10T08:53:57.612Z,51.84
2018-08-10T08:55:05.620Z,53.81
2018-08-10T08:56:10.665Z,52.41
2018-08-10T08:57:13.524Z,54.33
2018-08-10T08:58:16.645Z,55.58
2018-08-10T08:59:19.542Z,56.10
2018-08-10T09:00:22.405Z,56.97
2018-08-10T09:01:26.528Z,55.36
2018-08-10T09:02:29.987Z,54.08
2018-08-10T09:03:33.568Z,54.24
2018-08-10T09:04:36.435Z,52.65
2018-08-10T09:05:39.305Z,52.77
2018-08-10T09:06:43.183Z,52.56
2018-08-10T09:07:47.349Z,51.58
2018-08-10T09:08:50.321Z,53.26
2018-08-10T09:09:54.486Z,54.05
2018-08-10T09:10:59.158Z,54.27
2018-08-10T09:12:02.640Z,54.61
2018-08-10T09:13:06.285Z,55.25
2018-08-10T09:14:10.265Z,54.30
2018-08-10T09:15:15.672Z,55.28
2018-08-10T09:16:21.634Z,55.77
2018-08-10T09:17:24.501Z,54.71
2018-08-10T09:18:27.653Z,53.84
2018-08-10T09:19:30.468Z,53.22
2018-08-10T09:20:34.360Z,52.31
2018-08-10T09:21:38.183Z,52.22
2018-08-10T09:22:41.998Z,52.32
2018-08-10T09:23:46.044Z,52.05
2018-08-10T09:24:49.436Z,51.08
2018-08-10T09:25:52.268Z,50.57
2018-08-10T09:26:57.821Z,49.70
2018-08-10T09:28:00.641Z,49.18
2018-08-10T09:29:03.466Z,48.72
2018-08-10T09:30:06.344Z,47.99
2018-08-10T09:31:09.209Z,48.45
2018-08-10T09:32:12.038Z,45.94
2018-08-10T09:33:15.360Z,46.52
2018-08-10T09:34:19.637Z,47.41
2018-08-10T09:35:25.380Z,49.68
2018-08-10T09:36:29.299Z,49.62
2018-08-10T09:37:34.132Z,47.97
2018-08-10T09:38:37.814Z,47.82
2018-08-10T09:39:41.097Z,48.78
2018-08-10T09:40:44.105Z,49.53
2018-08-10T09:41:47.744Z,48.39
2018-08-10T09:44:08.093Z,50.48
2018-08-10T09:45:11.161Z,52.07
2018-08-10T09:46:14.667Z,50.77
2018-08-10T09:47:17.563Z,50.45
2018-08-10T09:48:20.380Z,51.32
2018-08-10T09:49:23.235Z,50.50
2018-08-10T09:50:26.515Z,49.29
2018-08-10T09:51:29.365Z,48.39
2018-08-10T09:52:33.099Z,47.75
2018-08-10T09:53:36.569Z,47.37
2018-08-10T09:54:39.477Z,47.88
2018-08-10T09:55:42.418Z,47.85
2018-08-10T09:56:45.497Z,48.05
2018-08-10T09:57:48.736Z,47.93
2018-08-10T09:58:51.926Z,47.09
2018-08-10T09:59:54.767Z,46.75
2018-08-10T10:01:01.624Z,47.41
2018-08-10T10:02:14.347Z,45.92
2018-08-10T10:03:21.515Z,43.95
2018-08-10T10:04:24.369Z,42.67
2018-08-10T10:05:30.077Z,44.53
2018-08-10T10:06:33.776Z,43.75
2018-08-10T10:07:37.542Z,43.42
2018-08-10T10:08:40.404Z,42.84
2018-08-10T10:09:44.255Z,43.11
2018-08-10T10:10:47.176Z,43.88
2018-08-10T10:11:54.745Z,42.51
2018-08-10T10:12:58.472Z,42.10
2018-08-10T10:14:01.432Z,40.53
2018-08-10T10:15:06.477Z,42.68
2018-08-10T10:16:09.339Z,42.03
2018-08-10T10:17:12.192Z,41.99
2018-08-10T10:18:17.214Z,41.85
2018-08-10T10:19:22.654Z,41.53
2018-08-10T10:20:25.562Z,41.84
2018-08-10T10:21:29.994Z,41.96
2018-08-10T10:22:32.871Z,41.36
2018-08-10T10:23:39.353Z,41.25
2018-08-10T10:24:42.645Z,40.30
2018-08-10T10:25:45.478Z,41.72
2018-08-10T10:26:48.351Z,41.07
2018-08-10T10:27:51.190Z,41.94
2018-08-10T10:28:54.036Z,42.82
2018-08-10T10:29:56.944Z,43.04
2018-08-10T10:32:21.795Z,43.80
2018-08-10T10:33:25.312Z,42.16
2018-08-10T10:34:28.245Z,42.54
2018-08-10T10:35:31.220Z,41.83
2018-08-10T10:36:34.065Z,41.35
2018-08-10T10:37:37.340Z,41.27
2018-08-10T10:38:40.689Z,41.89
2018-08-10T10:39:43.649Z,42.61
2018-08-10T10:40:47.789Z,41.61
2018-08-10T10:41:50.886Z,42.54
2018-08-10T10:42:54.771Z,42.87
2018-08-10T10:43:58.105Z,43.91
2018-08-10T10:45:02.518Z,44.19
2018-08-10T10:46:05.538Z,42.60
2018-08-10T10:47:12.037Z,44.42
2018-08-10T10:48:14.904Z,43.49
2018-08-10T10:49:17.729Z,43.17
2018-08-10T10:50:21.002Z,43.33
2018-08-10T10:51:23.909Z,43.61
2018-08-10T10:52:26.790Z,42.91
2018-08-10T10:53:29.953Z,43.15
2018-08-10T10:54:33.768Z,42.65
2018-08-10T10:55:36.966Z,41.92
2018-08-10T10:56:41.595Z,41.53
2018-08-10T10:57:44.878Z,41.25
2018-08-10T10:58:48.625Z,42.26
2018-08-10T10:59:55.548Z,41.39
2018-08-10T11:00:58.395Z,41.29
2018-08-10T11:02:02.909Z,40.87
2018-08-10T11:03:06.152Z,41.02
2018-08-10T11:04:09.625Z,41.10
2018-08-10T11:05:12.793Z,41.52
2018-08-10T11:06:16.504Z,40.73
2018-08-10T11:07:19.376Z,39.27
2018-08-10T11:08:22.228Z,40.09
2018-08-10T11:09:25.316Z,41.49
2018-08-10T11:10:28.176Z,42.09
2018-08-10T11:11:32.741Z,42.13
2018-08-10T11:12:36.215Z,41.85
2018-08-10T11:13:39.727Z,40.84
2018-08-10T11:14:43.361Z,40.17
2018-08-10T11:15:46.631Z,39.80
2018-08-10T11:16:50.770Z,38.85
2018-08-10T11:17:53.939Z,38.38
2018-08-10T11:18:57.636Z,37.55
2018-08-10T11:20:01.270Z,38.26
2018-08-10T11:21:06.124Z,38.68
2018-08-10T11:22:11.507Z,38.51
2018-08-10T11:23:14.581Z,38.84
2018-08-10T11:24:20.370Z,38.85
2018-08-10T11:26:50.486Z,38.11
2018-08-10T11:27:54.740Z,38.47
2018-08-10T11:28:59.629Z,38.44
2018-08-10T11:30:03.714Z,38.06
2018-08-10T11:31:07.427Z,38.68
2018-08-10T11:32:11.461Z,37.98
2018-08-10T11:33:14.314Z,37.27
2018-08-10T11:34:18.465Z,37.76
2018-08-10T11:35:22.649Z,36.37
2018-08-10T11:36:29.574Z,36.24
2018-08-10T11:37:32.423Z,34.22
2018-08-10T11:38:39.421Z,36.58
2018-08-10T11:39:42.288Z,35.19
2018-08-10T11:40:45.229Z,34.73
2018-08-10T11:41:50.820Z,35.47
2018-08-10T11:42:54.783Z,35.80
2018-08-10T11:43:57.679Z,36.15
2018-08-10T11:45:01.584Z,34.74
2018-08-10T11:46:06.561Z,34.43
2018-08-10T11:47:11.056Z,35.04
2018-08-10T11:48:14.223Z,34.42
2018-08-10T11:49:18.542Z,35.13
2018-08-10T11:50:32.387Z,35.95
2018-08-10T11:51:35.365Z,36.21
2018-08-10T11:52:38.954Z,34.79
2018-08-10T11:53:43.249Z,37.14
2018-08-10T11:54:46.600Z,37.25
2018-08-10T11:55:50.772Z,35.25
2018-08-10T11:56:53.782Z,35.88
2018-08-10T11:57:57.661Z,36.44
2018-08-10T11:59:00.500Z,37.08
2018-08-10T12:00:03.581Z,36.08
2018-08-10T12:01:07.116Z,36.44
2018-08-10T12:02:10.205Z,36.14
2018-08-10T12:03:13.171Z,35.12
2018-08-10T12:04:16.636Z,34.78
2018-08-10T12:05:20.861Z,34.61
2018-08-10T12:06:24.774Z,35.33
2018-08-10T12:07:28.034Z,35.72
2018-08-10T12:08:31.656Z,34.61
2018-08-10T12:09:34.575Z,35.63
2018-08-10T12:10:38.478Z,34.89
2018-08-10T12:11:42.539Z,35.67
2018-08-10T12:12:45.426Z,35.95
2018-08-10T12:13:49.618Z,35.53
2018-08-10T12:14:53.129Z,35.08
2018-08-10T12:15:57.044Z,35.63
2018-08-10T12:17:03.545Z,35.13
2018-08-10T12:18:06.599Z,34.50
2018-08-10T12:19:09.463Z,34.50
2018-08-10T12:20:12.794Z,34.78
2018-08-10T12:21:16.406Z,34.85
2018-08-10T12:22:20.211Z,34.86
2018-08-10T12:23:23.077Z,34.95
2018-08-10T12:24:25.886Z,34.92
2018-08-10T12:25:31.747Z,35.51
2018-08-10T12:26:36.101Z,35.56
2018-08-10T12:27:40.795Z,35.66
2018-08-10T12:28:43.806Z,35.68
2018-08-10T12:29:46.685Z,35.16
2018-08-10T12:30:50.766Z,33.96
2018-08-10T12:31:54.051Z,33.93
2018-08-10T12:32:57.377Z,34.93
2018-08-10T12:34:01.337Z,33.75
2018-08-10T12:35:05.797Z,33.63
2018-08-10T12:36:11.472Z,34.37
2018-08-10T12:37:17.439Z,34.73
2018-08-10T12:38:20.664Z,34.66
2018-08-10T12:39:24.936Z,34.61
2018-08-10T12:40:28.436Z,34.44
2018-08-10T12:41:31.320Z,35.05
2018-08-10T12:42:34.266Z,35.53
2018-08-10T12:43:37.115Z,34.99
2018-08-10T12:44:40.021Z,35.07
2018-08-10T12:45:43.526Z,34.41
2018-08-10T12:46:48.055Z,34.02
2018-08-10T12:47:51.041Z,34.49
2018-08-10T12:48:53.852Z,34.09
2018-08-10T12:49:56.866Z,34.29
2018-08-10T12:51:00.265Z,34.28
2018-08-10T12:52:03.765Z,33.84
2018-08-10T12:53:06.901Z,34.58
2018-08-10T12:54:09.840Z,34.10
2018-08-10T12:55:14.145Z,34.27
2018-08-10T12:56:18.576Z,34.10
2018-08-10T12:57:22.310Z,34.13
2018-08-10T12:58:25.502Z,32.71
2018-08-10T12:59:28.390Z,34.33
2018-08-10T13:00:32.410Z,35.02
2018-08-10T13:01:35.403Z,33.22
2018-08-10T13:02:39.257Z,34.20
2018-08-10T13:03:42.781Z,34.62
2018-08-10T13:04:46.758Z,33.63
2018-08-10T13:05:50.421Z,33.64
2018-08-10T13:06:53.323Z,34.30
2018-08-10T13:07:57.063Z,34.96
2018-08-10T13:09:00.200Z,36.12
2018-08-10T13:10:05.452Z,35.91
2018-08-10T13:11:08.775Z,35.45
2018-08-10T13:12:11.693Z,36.53
2018-08-10T13:13:14.609Z,35.34
2018-08-10T13:14:17.462Z,35.23
2018-08-10T13:15:20.403Z,35.35
2018-08-10T13:16:26.723Z,35.95
2018-08-10T13:17:30.618Z,36.61
2018-08-10T13:18:34.508Z,36.03
2018-08-10T13:19:38.328Z,35.16
2018-08-10T13:20:41.245Z,34.83
2018-08-10T13:21:44.334Z,35.13
2018-08-10T13:22:48.226Z,35.25
2018-08-10T13:23:51.366Z,35.16
2018-08-10T13:24:56.016Z,34.83
2018-08-10T13:26:00.993Z,35.92
2018-08-10T13:27:07.875Z,35.55
2018-08-10T13:28:10.747Z,35.62
2018-08-10T13:29:14.788Z,34.20
2018-08-10T13:30:18.379Z,35.22
2018-08-10T13:31:23.614Z,33.32
2018-08-10T13:32:27.494Z,34.05
2018-08-10T13:33:30.346Z,34.29
2018-08-10T13:34:33.827Z,34.62
2018-08-10T13:36:41.281Z,34.47
2018-08-10T13:37:46.663Z,34.40
2018-08-10T13:38:50.791Z,35.58
2018-08-10T13:39:53.680Z,35.68
2018-08-10T13:40:58.758Z,35.61
2018-08-10T13:42:02.340Z,36.26
2018-08-10T13:43:05.336Z,35.11
2018-08-10T13:45:19.271Z,36.58
2018-08-10T13:46:25.264Z,36.13
2018-08-10T13:47:28.524Z,35.93
2018-08-10T13:48:33.618Z,36.07